Houstonville, North Carolina
Current Conditions -  °F | °C
As of 9:35 AM on Friday 31 Oct 2014 (Local Time) from KSVH Reporting Station
Haze Haze  
Wind Chill: 44°   Ceiling: 1800
Heat Index: 47°   Visibility: 4mi
Dew Point: 37°   Wind: 8mph
Humidity: 66%   Direction: 50°NE
Pressure: 29.96"   Gusts: NA
Location:  35.9632°N, 80.7532°W
Report Text: KSVH 311335Z AUTO 05007KT 4SM HZ BKN018 09/03 A2996 RMK AO2 T00860026
Loading
Personal Weather Stations






























Interactive Weather Map
Tropical Storm Tracking
New forecast layout! Learn more

10-Day Weather Forecast

Advertisements
Track Severe Weather on mobile